• location
  • image
mod_vvisit_countermod_vvisit_countermod_vvisit_countermod_vvisit_countermod_vvisit_countermod_vvisit_counter
mod_vvisit_counterToday108
mod_vvisit_counterYesterday592
mod_vvisit_counterThis week2971
mod_vvisit_counterLast week4997
mod_vvisit_counterThis month13877
mod_vvisit_counterLast month19158
mod_vvisit_counterAll days757927

We have: 44 guests online
Your IP: 54.80.236.48
 , 
Today: Oct 21, 2017
Airport / Company / List of services

List of services

  

Services of Siauliai International Airport:

 

Leading (follow me)

Ground services

Aircraft loading/unloading

Aircraft parking

Aircraft security

Aircraft fuel supply

Passenger baggage service

Business class passenger service

Submission of information to passengers

Serving meals to passengers and crew

Additional services for aircraft crewmembers

Aviation Security

Dining Cafe

First medical aid

Hotel reservations

Transporting crew to/from the city

Taxi booking 

Border procedures

Customs procedures

 

Today

Saturday, 21 October 2017

Weather Forecast

Siauliai °C
   

Aviation Weather Forecast

[source: ADDS]
METAR
EYSA 210050Z AUTO 08007KT 9999NDV NSC 06/04 Q1019 =
TAF
TAF EYSA 202310Z 2100/2109 09010KT 5000 RA BR OVC010 TEMPO 2103/2109 3000 SHRA SCT005 BKN015CB =
SR / SS: 05:10 / 15:14 UTC (EYSA 2017-10-21)

Search

Who's Online

We have 43 guests online

tic logo en